createdAt,value
2017-12-11T00:00:48.237Z,202.50
2017-12-11T00:01:48.176Z,180.00
2017-12-11T00:02:48.173Z,202.50
2017-12-11T00:03:48.210Z,202.50
2017-12-11T00:04:48.239Z,202.50
2017-12-11T00:05:48.239Z,202.50
2017-12-11T00:06:48.278Z,225.00
2017-12-11T00:07:48.241Z,247.50
2017-12-11T00:08:48.172Z,180.00
2017-12-11T00:09:48.175Z,202.50
2017-12-11T00:10:48.251Z,202.50
2017-12-11T00:11:48.177Z,202.50
2017-12-11T00:12:48.244Z,225.00
2017-12-11T00:13:48.265Z,202.50
2017-12-11T00:14:48.178Z,202.50
2017-12-11T00:15:48.177Z,225.00
2017-12-11T00:16:48.245Z,247.50
2017-12-11T00:17:48.178Z,247.50
2017-12-11T00:18:48.251Z,247.50
2017-12-11T00:19:48.179Z,202.50
2017-12-11T00:20:48.250Z,202.50
2017-12-11T00:21:48.186Z,180.00
2017-12-11T00:22:48.138Z,270.00
2017-12-11T00:23:48.120Z,247.50
2017-12-11T00:24:48.145Z,180.00
2017-12-11T00:25:48.111Z,225.00
2017-12-11T00:26:48.239Z,225.00
2017-12-11T00:27:48.113Z,247.50
2017-12-11T00:28:48.234Z,202.50
2017-12-11T00:29:48.223Z,247.50
2017-12-11T00:30:48.179Z,247.50
2017-12-11T00:31:48.165Z,225.00
2017-12-11T00:32:48.131Z,247.50
2017-12-11T00:33:48.190Z,157.50
2017-12-11T00:34:48.126Z,202.50
2017-12-11T00:35:48.196Z,225.00
2017-12-11T00:36:48.248Z,202.50
2017-12-11T00:37:48.183Z,202.50
2017-12-11T00:38:48.202Z,225.00
2017-12-11T00:39:48.146Z,202.50
2017-12-11T00:40:48.214Z,225.00
2017-12-11T00:41:48.250Z,225.00
2017-12-11T00:42:48.192Z,247.50
2017-12-11T00:43:48.285Z,225.00
2017-12-11T00:44:48.206Z,202.50
2017-12-11T00:45:48.264Z,225.00
2017-12-11T00:46:48.226Z,180.00
2017-12-11T00:47:48.199Z,157.50
2017-12-11T00:48:48.144Z,202.50
2017-12-11T00:49:48.259Z,225.00
2017-12-11T00:50:48.205Z,225.00
2017-12-11T00:51:48.266Z,247.50
2017-12-11T00:52:48.209Z,202.50
2017-12-11T00:53:48.270Z,202.50
2017-12-11T00:54:48.267Z,247.50
2017-12-11T00:55:48.208Z,225.00
2017-12-11T00:56:48.202Z,157.50
2017-12-11T00:57:48.205Z,180.00
2017-12-11T00:58:48.271Z,202.50
2017-12-11T00:59:48.201Z,202.50
2017-12-11T01:00:48.276Z,157.50
2017-12-11T01:01:48.211Z,157.50
2017-12-11T01:02:48.147Z,180.00
2017-12-11T01:03:48.169Z,270.00
2017-12-11T01:04:48.197Z,202.50
2017-12-11T01:05:48.228Z,202.50
2017-12-11T01:06:48.185Z,225.00
2017-12-11T01:07:48.146Z,202.50
2017-12-11T01:08:48.231Z,157.50
2017-12-11T01:09:48.205Z,202.50
2017-12-11T01:10:48.171Z,180.00
2017-12-11T01:11:48.209Z,202.50
2017-12-11T01:12:48.177Z,247.50
2017-12-11T01:13:48.179Z,202.50
2017-12-11T01:14:48.139Z,247.50
2017-12-11T01:15:48.227Z,202.50
2017-12-11T01:16:48.233Z,202.50
2017-12-11T01:17:48.141Z,202.50
2017-12-11T01:18:48.183Z,180.00
2017-12-11T01:19:48.233Z,202.50
2017-12-11T01:20:48.138Z,247.50
2017-12-11T01:21:48.141Z,180.00
2017-12-11T01:22:48.191Z,247.50
2017-12-11T01:23:48.149Z,135.00
2017-12-11T01:24:48.270Z,157.50
2017-12-11T01:25:48.271Z,180.00
2017-12-11T01:26:48.272Z,180.00
2017-12-11T01:27:48.243Z,157.50
2017-12-11T01:28:48.218Z,202.50
2017-12-11T01:29:48.177Z,180.00
2017-12-11T01:30:48.266Z,135.00
2017-12-11T01:31:48.202Z,202.50
2017-12-11T01:32:48.292Z,180.00
2017-12-11T01:33:48.226Z,225.00
2017-12-11T01:34:48.227Z,180.00
2017-12-11T01:35:48.185Z,225.00
2017-12-11T01:36:48.226Z,247.50
2017-12-11T01:37:48.295Z,225.00
2017-12-11T01:38:48.228Z,225.00
2017-12-11T01:39:48.295Z,202.50
2017-12-11T01:40:48.299Z,225.00
2017-12-11T01:41:48.227Z,225.00
2017-12-11T01:42:48.191Z,247.50
2017-12-11T01:43:48.228Z,202.50
2017-12-11T01:44:48.187Z,180.00
2017-12-11T01:45:48.260Z,202.50
2017-12-11T01:46:48.193Z,180.00
2017-12-11T01:47:48.156Z,225.00
2017-12-11T01:48:48.162Z,157.50
2017-12-11T01:49:48.263Z,202.50
2017-12-11T01:50:48.287Z,225.00
2017-12-11T01:51:48.230Z,247.50
2017-12-11T01:52:48.300Z,180.00
2017-12-11T01:53:48.288Z,225.00
2017-12-11T01:54:48.294Z,225.00
2017-12-11T01:55:48.209Z,202.50
2017-12-11T01:56:48.308Z,247.50
2017-12-11T01:57:48.191Z,202.50
2017-12-11T01:58:48.300Z,202.50
2017-12-11T01:59:48.301Z,180.00
2017-12-11T02:00:48.241Z,247.50
2017-12-11T02:01:48.244Z,247.50
2017-12-11T02:02:48.239Z,247.50
2017-12-11T02:03:48.322Z,225.00
2017-12-11T02:04:48.249Z,270.00
2017-12-11T02:05:48.311Z,270.00
2017-12-11T02:06:48.263Z,247.50
2017-12-11T02:07:48.311Z,247.50
2017-12-11T02:08:48.315Z,225.00
2017-12-11T02:09:48.315Z,202.50
2017-12-11T02:10:48.250Z,247.50
2017-12-11T02:11:48.316Z,270.00
2017-12-11T02:12:48.314Z,247.50
2017-12-11T02:13:48.243Z,270.00
2017-12-11T02:14:48.251Z,270.00
2017-12-11T02:15:48.318Z,247.50
2017-12-11T02:16:48.252Z,225.00
2017-12-11T02:17:48.319Z,225.00
2017-12-11T02:18:48.255Z,247.50
2017-12-11T02:19:48.322Z,270.00
2017-12-11T02:20:48.257Z,247.50
2017-12-11T02:21:48.328Z,292.50
2017-12-11T02:22:48.275Z,292.50
2017-12-11T02:23:48.324Z,270.00
2017-12-11T02:24:48.257Z,247.50
2017-12-11T02:25:48.324Z,247.50
2017-12-11T02:26:48.254Z,202.50
2017-12-11T02:27:48.328Z,202.50
2017-12-11T02:28:48.257Z,225.00
2017-12-11T02:29:48.326Z,225.00
2017-12-11T02:30:48.320Z,270.00
2017-12-11T02:31:48.261Z,292.50
2017-12-11T02:32:48.328Z,225.00
2017-12-11T02:33:48.260Z,180.00
2017-12-11T02:34:48.330Z,202.50
2017-12-11T02:35:48.327Z,157.50
2017-12-11T02:36:48.265Z,202.50
2017-12-11T02:37:48.269Z,225.00
2017-12-11T02:38:48.333Z,180.00
2017-12-11T02:39:48.263Z,202.50
2017-12-11T02:40:48.264Z,225.00
2017-12-11T02:41:48.267Z,225.00
2017-12-11T02:42:48.273Z,225.00
2017-12-11T02:43:48.339Z,202.50
2017-12-11T02:44:48.269Z,202.50
2017-12-11T02:45:48.337Z,225.00
2017-12-11T02:46:48.264Z,202.50
2017-12-11T02:47:48.342Z,202.50
2017-12-11T02:48:48.337Z,247.50
2017-12-11T02:49:48.268Z,247.50
2017-12-11T02:50:48.338Z,247.50
2017-12-11T02:51:48.312Z,270.00
2017-12-11T02:52:48.287Z,202.50
2017-12-11T02:53:48.236Z,270.00
2017-12-11T02:54:48.286Z,225.00
2017-12-11T02:55:48.194Z,180.00
2017-12-11T02:56:48.240Z,292.50
2017-12-11T02:57:48.192Z,225.00
2017-12-11T02:58:48.244Z,202.50
2017-12-11T02:59:48.242Z,225.00
2017-12-11T03:00:48.196Z,247.50
2017-12-11T03:01:48.195Z,270.00
2017-12-11T03:02:48.282Z,180.00
2017-12-11T03:03:48.349Z,202.50
2017-12-11T03:04:48.308Z,270.00
2017-12-11T03:05:48.281Z,270.00
2017-12-11T03:06:48.352Z,247.50
2017-12-11T03:07:48.282Z,247.50
2017-12-11T03:08:48.351Z,247.50
2017-12-11T03:09:48.282Z,270.00
2017-12-11T03:10:48.360Z,247.50
2017-12-11T03:11:48.279Z,247.50
2017-12-11T03:12:48.216Z,270.00
2017-12-11T03:13:48.343Z,247.50
2017-12-11T03:14:48.222Z,292.50
2017-12-11T03:15:48.217Z,202.50
2017-12-11T03:16:48.237Z,247.50
2017-12-11T03:17:48.258Z,247.50
2017-12-11T03:18:48.240Z,225.00
2017-12-11T03:19:48.238Z,247.50
2017-12-11T03:20:48.549Z,270.00
2017-12-11T03:21:48.260Z,225.00
2017-12-11T03:22:48.261Z,225.00
2017-12-11T03:23:48.240Z,247.50
2017-12-11T03:24:48.244Z,270.00
2017-12-11T03:25:48.329Z,247.50
2017-12-11T03:26:48.352Z,270.00
2017-12-11T03:27:48.243Z,315.00
2017-12-11T03:28:48.361Z,225.00
2017-12-11T03:29:48.268Z,180.00
2017-12-11T03:30:48.317Z,225.00
2017-12-11T03:31:48.242Z,247.50
2017-12-11T03:32:48.316Z,292.50
2017-12-11T03:33:48.248Z,180.00
2017-12-11T03:34:48.343Z,292.50
2017-12-11T03:35:48.326Z,270.00
2017-12-11T03:36:48.229Z,270.00
2017-12-11T03:37:48.235Z,270.00
2017-12-11T03:38:48.235Z,270.00
2017-12-11T03:39:48.372Z,270.00
2017-12-11T03:40:48.346Z,247.50
2017-12-11T03:41:48.300Z,247.50
2017-12-11T03:42:48.299Z,270.00
2017-12-11T03:43:48.361Z,270.00
2017-12-11T03:44:48.364Z,247.50
2017-12-11T03:45:48.323Z,202.50
2017-12-11T03:46:48.306Z,247.50
2017-12-11T03:47:48.277Z,270.00
2017-12-11T03:48:48.328Z,270.00
2017-12-11T03:49:48.360Z,270.00
2017-12-11T03:50:48.342Z,270.00
2017-12-11T03:51:48.360Z,270.00
2017-12-11T03:52:48.282Z,270.00
2017-12-11T03:53:48.257Z,270.00
2017-12-11T03:54:48.284Z,247.50
2017-12-11T03:55:48.280Z,202.50
2017-12-11T03:56:48.278Z,225.00
2017-12-11T03:57:48.282Z,225.00
2017-12-11T03:58:48.276Z,180.00
2017-12-11T03:59:48.333Z,202.50
2017-12-11T04:00:48.307Z,247.50
2017-12-11T04:01:48.349Z,270.00
2017-12-11T04:02:48.278Z,270.00
2017-12-11T04:03:48.380Z,270.00
2017-12-11T04:04:48.246Z,292.50
2017-12-11T04:05:48.382Z,270.00
2017-12-11T04:06:48.371Z,270.00
2017-12-11T04:07:48.367Z,247.50
2017-12-11T04:08:48.321Z,270.00
2017-12-11T04:09:48.368Z,270.00
2017-12-11T04:10:48.383Z,270.00
2017-12-11T04:11:48.336Z,270.00
2017-12-11T04:12:48.293Z,247.50
2017-12-11T04:13:48.374Z,202.50
2017-12-11T04:14:48.255Z,202.50
2017-12-11T04:15:48.292Z,247.50
2017-12-11T04:16:48.272Z,225.00
2017-12-11T04:17:48.343Z,270.00
2017-12-11T04:18:48.274Z,270.00
2017-12-11T04:19:48.269Z,270.00
2017-12-11T04:20:48.275Z,270.00
2017-12-11T04:21:48.297Z,247.50
2017-12-11T04:22:48.392Z,270.00
2017-12-11T04:23:48.338Z,247.50
2017-12-11T04:24:48.396Z,270.00
2017-12-11T04:25:48.326Z,247.50
2017-12-11T04:26:48.397Z,225.00
2017-12-11T04:27:48.390Z,247.50
2017-12-11T04:28:48.341Z,247.50
2017-12-11T04:29:48.405Z,247.50
2017-12-11T04:30:48.329Z,270.00
2017-12-11T04:31:48.399Z,270.00
2017-12-11T04:32:48.332Z,292.50
2017-12-11T04:33:48.400Z,225.00
2017-12-11T04:34:48.333Z,315.00
2017-12-11T04:35:48.334Z,292.50
2017-12-11T04:36:48.333Z,292.50
2017-12-11T04:37:48.402Z,270.00
2017-12-11T04:38:48.336Z,202.50
2017-12-11T04:39:48.402Z,135.00
2017-12-11T04:40:48.339Z,157.50
2017-12-11T04:41:48.426Z,247.50
2017-12-11T04:42:48.346Z,270.00
2017-12-11T04:43:48.405Z,157.50
2017-12-11T04:44:48.409Z,135.00
2017-12-11T04:45:48.471Z,180.00
2017-12-11T04:46:48.411Z,225.00
2017-12-11T04:47:48.343Z,180.00
2017-12-11T04:48:48.414Z,180.00
2017-12-11T04:49:48.343Z,157.50
2017-12-11T04:50:48.291Z,315.00
2017-12-11T04:51:48.350Z,292.50
2017-12-11T04:52:48.337Z,202.50
2017-12-11T04:53:48.343Z,247.50
2017-12-11T04:54:48.363Z,270.00
2017-12-11T04:55:48.381Z,270.00
2017-12-11T04:56:48.415Z,247.50
2017-12-11T04:57:48.362Z,270.00
2017-12-11T04:58:48.344Z,270.00
2017-12-11T04:59:48.296Z,270.00
2017-12-11T05:00:48.319Z,270.00
2017-12-11T05:01:48.302Z,247.50
2017-12-11T05:02:48.419Z,270.00
2017-12-11T05:03:48.422Z,247.50
2017-12-11T05:04:48.422Z,225.00
2017-12-11T05:05:48.361Z,292.50
2017-12-11T05:06:48.418Z,225.00
2017-12-11T05:07:48.421Z,225.00
2017-12-11T05:08:48.354Z,247.50
2017-12-11T05:09:48.357Z,292.50
2017-12-11T05:10:48.448Z,225.00
2017-12-11T05:11:48.358Z,225.00
2017-12-11T05:12:48.306Z,247.50
2017-12-11T05:13:48.373Z,270.00
2017-12-11T05:14:48.355Z,292.50
2017-12-11T05:15:48.378Z,247.50
2017-12-11T05:16:48.424Z,135.00
2017-12-11T05:17:48.377Z,225.00
2017-12-11T05:18:48.295Z,180.00
2017-12-11T05:19:48.363Z,157.50
2017-12-11T05:20:48.388Z,157.50
2017-12-11T05:21:48.381Z,180.00
2017-12-11T05:22:48.365Z,112.50
2017-12-11T05:23:48.431Z,247.50
2017-12-11T05:24:48.431Z,202.50
2017-12-11T05:25:48.436Z,202.50
2017-12-11T05:26:48.370Z,112.50
2017-12-11T05:27:48.438Z,270.00
2017-12-11T05:28:48.369Z,247.50
2017-12-11T05:29:48.409Z,292.50
2017-12-11T05:30:48.436Z,270.00
2017-12-11T05:31:48.437Z,292.50
2017-12-11T05:32:48.366Z,270.00
2017-12-11T05:33:48.436Z,270.00
2017-12-11T05:34:48.373Z,292.50
2017-12-11T05:35:48.438Z,247.50
2017-12-11T05:36:48.369Z,247.50
2017-12-11T05:37:48.440Z,292.50
2017-12-11T05:38:48.442Z,270.00
2017-12-11T05:39:48.372Z,202.50
2017-12-11T05:40:48.377Z,247.50
2017-12-11T05:41:48.441Z,180.00
2017-12-11T05:43:48.443Z,135.00
2017-12-11T05:44:48.381Z,112.50
2017-12-11T05:45:48.371Z,135.00
2017-12-11T05:46:48.443Z,135.00
2017-12-11T05:47:48.378Z,112.50
2017-12-11T05:48:48.446Z,180.00
2017-12-11T05:49:48.376Z,225.00
2017-12-11T05:50:48.354Z,292.50
2017-12-11T05:51:48.403Z,90.00
2017-12-11T05:52:48.446Z,202.50
2017-12-11T05:53:48.390Z,292.50
2017-12-11T05:54:48.385Z,292.50
2017-12-11T05:55:48.382Z,270.00
2017-12-11T05:56:48.386Z,292.50
2017-12-11T05:57:48.449Z,292.50
2017-12-11T05:58:48.459Z,315.00
2017-12-11T05:59:48.387Z,292.50
2017-12-11T06:00:48.455Z,270.00
2017-12-11T06:01:48.458Z,315.00
2017-12-11T06:02:48.383Z,270.00
2017-12-11T06:03:48.456Z,292.50
2017-12-11T06:04:48.522Z,292.50
2017-12-11T06:05:48.383Z,270.00
2017-12-11T06:06:48.456Z,270.00
2017-12-11T06:07:48.393Z,315.00
2017-12-11T06:08:48.461Z,90.00
2017-12-11T06:09:48.389Z,45.00
2017-12-11T06:10:48.461Z,45.00
2017-12-11T06:11:48.339Z,45.00
2017-12-11T06:12:48.395Z,22.50
2017-12-11T06:13:48.461Z,45.00
2017-12-11T06:14:48.400Z,112.50
2017-12-11T06:15:48.463Z,292.50
2017-12-11T06:16:48.464Z,180.00
2017-12-11T06:17:48.470Z,337.50
2017-12-11T06:18:48.398Z,337.50
2017-12-11T06:19:48.438Z,292.50
2017-12-11T06:20:48.466Z,315.00
2017-12-11T06:21:48.415Z,270.00
2017-12-11T06:22:48.465Z,270.00
2017-12-11T06:23:48.396Z,180.00
2017-12-11T06:24:48.467Z,292.50
2017-12-11T06:25:48.401Z,292.50
2017-12-11T06:26:48.473Z,225.00
2017-12-11T06:27:48.403Z,157.50
2017-12-11T06:28:48.469Z,180.00
2017-12-11T06:29:48.408Z,202.50
2017-12-11T06:30:48.404Z,157.50
2017-12-11T06:31:48.479Z,247.50
2017-12-11T06:32:48.406Z,135.00
2017-12-11T06:33:48.366Z,135.00
2017-12-11T06:34:48.329Z,180.00
2017-12-11T06:35:48.335Z,180.00
2017-12-11T06:36:48.384Z,90.00
2017-12-11T06:37:48.343Z,180.00
2017-12-11T06:38:48.335Z,112.50
2017-12-11T06:39:48.412Z,135.00
2017-12-11T06:40:48.368Z,90.00
2017-12-11T06:41:48.425Z,225.00
2017-12-11T06:42:48.326Z,292.50
2017-12-11T06:43:48.470Z,292.50
2017-12-11T06:44:48.364Z,180.00
2017-12-11T06:45:48.383Z,292.50
2017-12-11T06:46:48.391Z,292.50
2017-12-11T06:47:48.411Z,292.50
2017-12-11T06:48:48.382Z,247.50
2017-12-11T06:49:48.477Z,202.50
2017-12-11T06:50:48.416Z,90.00
2017-12-11T06:51:48.481Z,157.50
2017-12-11T06:52:48.389Z,202.50
2017-12-11T06:53:48.415Z,157.50
2017-12-11T06:54:48.499Z,315.00
2017-12-11T06:55:48.552Z,292.50
2017-12-11T06:56:48.487Z,315.00
2017-12-11T06:57:48.419Z,225.00
2017-12-11T06:58:48.504Z,270.00
2017-12-11T06:59:48.424Z,292.50
2017-12-11T07:00:48.494Z,67.50
2017-12-11T07:01:48.422Z,22.50
2017-12-11T07:02:48.461Z,45.00
2017-12-11T07:03:48.481Z,112.50
2017-12-11T07:04:48.487Z,112.50
2017-12-11T07:05:48.491Z,45.00
2017-12-11T07:06:48.449Z,292.50
2017-12-11T07:07:48.460Z,315.00
2017-12-11T07:08:48.400Z,225.00
2017-12-11T07:09:48.479Z,315.00
2017-12-11T07:10:48.364Z,270.00
2017-12-11T07:11:48.483Z,270.00
2017-12-11T07:12:48.498Z,225.00
2017-12-11T07:13:48.447Z,202.50
2017-12-11T07:14:48.353Z,247.50
2017-12-11T07:15:48.398Z,337.50
2017-12-11T07:16:48.411Z,292.50
2017-12-11T07:17:48.444Z,270.00
2017-12-11T07:18:48.404Z,225.00
2017-12-11T07:19:48.449Z,180.00
2017-12-11T07:20:48.357Z,135.00
2017-12-11T07:21:48.400Z,112.50
2017-12-11T07:22:48.450Z,22.50
2017-12-11T07:23:48.440Z,45.00
2017-12-11T07:24:48.507Z,90.00
2017-12-11T07:25:48.440Z,157.50
2017-12-11T07:26:48.523Z,157.50
2017-12-11T07:27:48.440Z,157.50
2017-12-11T07:28:48.512Z,157.50
2017-12-11T07:29:48.439Z,157.50
2017-12-11T07:30:48.519Z,157.50
2017-12-11T07:31:48.457Z,157.50
2017-12-11T07:32:48.526Z,157.50
2017-12-11T07:33:48.437Z,135.00
2017-12-11T07:34:48.387Z,112.50
2017-12-11T07:35:48.513Z,90.00
2017-12-11T07:36:48.461Z,112.50
2017-12-11T07:37:48.429Z,112.50
2017-12-11T07:38:48.405Z,67.50
2017-12-11T07:39:48.483Z,67.50
2017-12-11T07:40:48.522Z,22.50
2017-12-11T07:41:48.413Z,67.50
2017-12-11T07:42:48.533Z,45.00
2017-12-11T07:43:48.528Z,45.00
2017-12-11T07:44:48.434Z,90.00
2017-12-11T07:45:48.542Z,67.50
2017-12-11T07:46:48.470Z,67.50
2017-12-11T07:47:48.443Z,45.00
2017-12-11T07:48:48.430Z,45.00
2017-12-11T07:49:48.472Z,67.50
2017-12-11T07:50:48.522Z,45.00
2017-12-11T07:51:48.440Z,45.00
2017-12-11T07:52:48.491Z,67.50
2017-12-11T07:53:48.489Z,157.50
2017-12-11T07:54:48.537Z,180.00
2017-12-11T07:55:48.476Z,180.00
2017-12-11T07:56:48.459Z,180.00
2017-12-11T07:57:48.491Z,202.50
2017-12-11T07:58:48.476Z,180.00
2017-12-11T07:59:48.591Z,180.00
2017-12-11T08:00:48.469Z,180.00
2017-12-11T08:01:48.471Z,180.00
2017-12-11T08:02:48.547Z,157.50
2017-12-11T08:03:48.460Z,180.00
2017-12-11T08:04:48.528Z,157.50
2017-12-11T08:05:48.477Z,157.50
2017-12-11T08:06:48.563Z,157.50
2017-12-11T08:07:48.477Z,157.50
2017-12-11T08:08:48.551Z,157.50
2017-12-11T08:09:48.563Z,112.50
2017-12-11T08:10:48.469Z,67.50
2017-12-11T08:11:48.551Z,45.00
2017-12-11T08:12:48.473Z,22.50
2017-12-11T08:13:48.558Z,22.50
2017-12-11T08:14:48.486Z,90.00
2017-12-11T08:15:48.583Z,112.50
2017-12-11T08:16:48.551Z,112.50
2017-12-11T08:17:48.550Z,157.50
2017-12-11T08:18:48.554Z,180.00
2017-12-11T08:19:48.488Z,157.50
2017-12-11T08:20:48.551Z,157.50
2017-12-11T08:21:48.518Z,90.00
2017-12-11T08:22:48.560Z,67.50
2017-12-11T08:23:48.516Z,45.00
2017-12-11T08:24:48.487Z,67.50
2017-12-11T08:25:48.542Z,90.00
2017-12-11T08:26:48.493Z,45.00
2017-12-11T08:27:48.558Z,67.50
2017-12-11T08:28:48.492Z,67.50
2017-12-11T08:29:48.555Z,90.00
2017-12-11T08:30:48.560Z,90.00
2017-12-11T08:31:48.487Z,67.50
2017-12-11T08:32:48.490Z,67.50
2017-12-11T08:33:48.493Z,90.00
2017-12-11T08:34:48.559Z,67.50
2017-12-11T08:35:48.499Z,45.00
2017-12-11T08:36:48.580Z,135.00
2017-12-11T08:37:48.574Z,112.50
2017-12-11T08:38:48.491Z,67.50
2017-12-11T08:39:48.559Z,67.50
2017-12-11T08:40:48.603Z,67.50
2017-12-11T08:41:48.521Z,67.50
2017-12-11T08:42:48.562Z,67.50
2017-12-11T08:43:48.498Z,67.50
2017-12-11T08:44:48.568Z,157.50
2017-12-11T08:45:48.494Z,157.50
2017-12-11T08:46:48.570Z,135.00
2017-12-11T08:47:48.573Z,112.50
2017-12-11T08:48:48.490Z,112.50
2017-12-11T08:49:48.499Z,90.00
2017-12-11T08:50:48.564Z,135.00
2017-12-11T08:51:48.500Z,157.50
2017-12-11T08:52:48.564Z,157.50
2017-12-11T08:53:48.577Z,157.50
2017-12-11T08:54:48.497Z,180.00
2017-12-11T08:55:48.556Z,180.00
2017-12-11T08:56:48.505Z,67.50
2017-12-11T09:01:48.496Z,112.50
2017-12-11T09:02:48.508Z,157.50
2017-12-11T09:03:48.586Z,135.00
2017-12-11T09:04:48.494Z,67.50
2017-12-11T09:05:48.562Z,135.00
2017-12-11T09:06:48.498Z,157.50
2017-12-11T09:07:48.577Z,90.00
2017-12-11T09:08:48.494Z,90.00
2017-12-11T09:09:48.500Z,90.00
2017-12-11T09:10:48.570Z,180.00
2017-12-11T09:11:48.501Z,90.00
2017-12-11T09:12:48.793Z,90.00
2017-12-11T09:13:48.566Z,90.00
2017-12-11T09:14:48.566Z,90.00
2017-12-11T09:15:48.506Z,90.00
2017-12-11T09:16:48.570Z,90.00
2017-12-11T09:17:48.518Z,90.00
2017-12-11T09:18:48.593Z,90.00
2017-12-11T09:19:48.501Z,67.50
2017-12-11T09:20:48.504Z,90.00
2017-12-11T09:21:48.573Z,67.50
2017-12-11T09:22:48.504Z,90.00
2017-12-11T09:23:48.518Z,112.50
2017-12-11T09:24:48.571Z,135.00
2017-12-11T09:25:48.542Z,135.00
2017-12-11T09:26:48.542Z,90.00
2017-12-11T09:27:48.542Z,90.00
2017-12-11T09:28:48.538Z,90.00
2017-12-11T09:29:48.506Z,90.00
2017-12-11T09:30:48.454Z,90.00
2017-12-11T09:31:48.576Z,112.50
2017-12-11T09:32:48.575Z,90.00
2017-12-11T09:33:48.516Z,135.00
2017-12-11T09:34:48.583Z,90.00
2017-12-11T09:35:48.511Z,90.00
2017-12-11T09:36:48.580Z,90.00
2017-12-11T09:37:48.514Z,90.00
2017-12-11T09:38:48.585Z,67.50
2017-12-11T09:39:48.512Z,67.50
2017-12-11T09:40:48.585Z,112.50
2017-12-11T09:41:48.542Z,67.50
2017-12-11T09:42:48.508Z,90.00
2017-12-11T09:43:48.628Z,135.00
2017-12-11T09:44:48.589Z,90.00
2017-12-11T09:45:48.542Z,90.00
2017-12-11T09:46:48.530Z,90.00
2017-12-11T09:47:48.525Z,157.50
2017-12-11T09:48:48.589Z,157.50
2017-12-11T09:49:48.521Z,90.00
2017-12-11T09:50:48.518Z,135.00
2017-12-11T09:51:48.594Z,135.00
2017-12-11T09:52:48.526Z,157.50
2017-12-11T09:53:48.591Z,135.00
2017-12-11T09:54:48.592Z,112.50
2017-12-11T09:55:48.524Z,112.50
2017-12-11T09:56:48.527Z,135.00
2017-12-11T09:57:48.594Z,90.00
2017-12-11T09:58:48.531Z,112.50
2017-12-11T09:59:48.526Z,135.00
2017-12-11T10:00:48.596Z,90.00
2017-12-11T10:01:48.573Z,112.50
2017-12-11T10:02:48.530Z,90.00
2017-12-11T10:03:48.553Z,135.00
2017-12-11T10:04:48.588Z,135.00
2017-12-11T10:05:48.485Z,180.00
2017-12-11T10:06:48.586Z,157.50
2017-12-11T10:07:48.521Z,112.50
2017-12-11T10:08:48.504Z,180.00
2017-12-11T10:09:48.576Z,157.50
2017-12-11T10:10:48.559Z,67.50
2017-12-11T10:11:48.472Z,112.50
2017-12-11T10:12:48.590Z,157.50
2017-12-11T10:13:48.563Z,135.00
2017-12-11T10:14:48.465Z,135.00
2017-12-11T10:15:48.507Z,180.00
2017-12-11T10:16:48.479Z,202.50
2017-12-11T10:17:48.470Z,135.00
2017-12-11T10:18:48.563Z,90.00
2017-12-11T10:19:48.496Z,67.50
2017-12-11T10:20:48.498Z,90.00
2017-12-11T10:21:48.563Z,22.50
2017-12-11T10:22:48.469Z,112.50
2017-12-11T10:23:48.545Z,247.50
2017-12-11T10:24:48.610Z,90.00
2017-12-11T10:25:48.611Z,90.00
2017-12-11T10:26:48.546Z,247.50
2017-12-11T10:27:48.617Z,270.00
2017-12-11T10:28:48.612Z,247.50
2017-12-11T10:29:48.614Z,112.50
2017-12-11T10:30:48.546Z,22.50
2017-12-11T10:31:48.616Z,22.50
2017-12-11T10:32:48.552Z,180.00
2017-12-11T10:33:48.568Z,337.50
2017-12-11T10:34:48.570Z,337.50
2017-12-11T10:35:48.599Z,315.00
2017-12-11T10:36:48.556Z,315.00
2017-12-11T10:37:48.514Z,247.50
2017-12-11T10:38:48.481Z,225.00
2017-12-11T10:41:48.582Z,202.50
2017-12-11T10:42:48.506Z,270.00
2017-12-11T10:43:48.595Z,292.50
2017-12-11T10:44:48.534Z,292.50
2017-12-11T10:45:48.545Z,180.00
2017-12-11T10:46:48.605Z,337.50
2017-12-11T10:47:48.552Z,337.50
2017-12-11T10:48:48.492Z,315.00
2017-12-11T10:49:48.575Z,292.50
2017-12-11T10:50:48.481Z,225.00
2017-12-11T10:51:48.514Z,202.50
2017-12-11T10:52:48.560Z,315.00
2017-12-11T10:53:48.607Z,292.50
2017-12-11T10:54:48.576Z,270.00
2017-12-11T10:55:48.617Z,90.00
2017-12-11T10:56:48.576Z,22.50
2017-12-11T10:57:48.535Z,247.50
2017-12-11T10:58:48.630Z,225.00
2017-12-11T10:59:48.607Z,270.00
2017-12-11T11:00:48.580Z,292.50
2017-12-11T11:01:48.584Z,270.00
2017-12-11T11:02:48.535Z,247.50
2017-12-11T11:03:48.637Z,22.50
2017-12-11T11:04:48.566Z,157.50
2017-12-11T11:05:48.641Z,0.00
2017-12-11T11:06:48.637Z,0.00
2017-12-11T11:07:48.566Z,270.00
2017-12-11T11:08:48.575Z,292.50
2017-12-11T11:09:48.572Z,202.50
2017-12-11T11:10:48.575Z,67.50
2017-12-11T11:11:48.642Z,315.00
2017-12-11T11:12:48.638Z,292.50
2017-12-11T11:13:48.621Z,337.50
2017-12-11T11:14:48.619Z,270.00
2017-12-11T11:15:48.566Z,180.00
2017-12-11T11:16:48.622Z,22.50
2017-12-11T11:17:48.628Z,157.50
2017-12-11T11:18:48.565Z,292.50
2017-12-11T11:19:48.605Z,315.00
2017-12-11T11:20:48.596Z,225.00
2017-12-11T11:21:48.623Z,225.00
2017-12-11T11:22:48.568Z,157.50
2017-12-11T11:23:48.530Z,202.50
2017-12-11T11:24:48.594Z,180.00
2017-12-11T11:25:48.618Z,157.50
2017-12-11T11:26:48.634Z,292.50
2017-12-11T11:27:48.530Z,22.50
2017-12-11T11:28:48.639Z,90.00
2017-12-11T11:29:48.533Z,112.50
2017-12-11T11:30:48.601Z,157.50
2017-12-11T11:31:48.649Z,337.50
2017-12-11T11:32:48.517Z,0.00
2017-12-11T11:33:48.635Z,135.00
2017-12-11T11:34:48.617Z,315.00
2017-12-11T11:35:48.613Z,202.50
2017-12-11T11:36:48.513Z,180.00
2017-12-11T11:37:48.586Z,270.00
2017-12-11T11:38:48.515Z,202.50
2017-12-11T11:39:48.565Z,202.50
2017-12-11T11:40:48.563Z,180.00
2017-12-11T11:41:48.612Z,337.50
2017-12-11T11:42:48.556Z,315.00
2017-12-11T11:43:48.593Z,315.00
2017-12-11T11:44:48.658Z,270.00
2017-12-11T11:45:48.665Z,292.50
2017-12-11T11:46:48.596Z,292.50
2017-12-11T11:47:48.663Z,315.00
2017-12-11T11:48:48.597Z,315.00
2017-12-11T11:49:48.661Z,315.00
2017-12-11T11:50:48.593Z,247.50
2017-12-11T11:51:48.661Z,315.00
2017-12-11T11:52:48.597Z,202.50
2017-12-11T11:53:48.666Z,292.50
2017-12-11T11:54:48.598Z,292.50
2017-12-11T11:55:48.597Z,270.00
2017-12-11T11:56:48.667Z,90.00
2017-12-11T11:57:48.596Z,135.00
2017-12-11T11:58:48.666Z,292.50
2017-12-11T11:59:48.598Z,202.50
2017-12-11T12:00:48.668Z,112.50
2017-12-11T12:01:48.600Z,135.00
2017-12-11T12:02:48.671Z,67.50
2017-12-11T12:03:48.600Z,157.50
2017-12-11T12:04:48.670Z,135.00
2017-12-11T12:05:48.616Z,112.50
2017-12-11T12:06:48.671Z,247.50
2017-12-11T12:07:48.603Z,270.00
2017-12-11T12:08:48.672Z,247.50
2017-12-11T12:09:48.612Z,202.50
2017-12-11T12:10:48.675Z,112.50
2017-12-11T12:11:48.606Z,180.00
2017-12-11T12:12:48.679Z,202.50
2017-12-11T12:13:48.655Z,180.00
2017-12-11T12:14:48.529Z,135.00
2017-12-11T12:15:48.631Z,135.00
2017-12-11T12:16:48.543Z,180.00
2017-12-11T12:17:48.660Z,180.00
2017-12-11T12:18:48.658Z,180.00
2017-12-11T12:19:48.533Z,180.00
2017-12-11T12:20:48.642Z,180.00
2017-12-11T12:21:48.658Z,180.00
2017-12-11T12:22:48.644Z,157.50
2017-12-11T12:23:48.563Z,202.50
2017-12-11T12:24:48.616Z,180.00
2017-12-11T12:25:48.583Z,157.50
2017-12-11T12:26:48.667Z,180.00
2017-12-11T12:27:48.584Z,157.50
2017-12-11T12:28:48.682Z,157.50
2017-12-11T12:29:48.555Z,157.50
2017-12-11T12:30:48.656Z,270.00
2017-12-11T12:31:48.551Z,270.00
2017-12-11T12:32:48.628Z,112.50
2017-12-11T12:33:48.643Z,270.00
2017-12-11T12:34:48.647Z,180.00
2017-12-11T12:35:48.554Z,45.00
2017-12-11T12:36:48.599Z,202.50
2017-12-11T12:37:48.574Z,225.00
2017-12-11T12:38:48.680Z,202.50
2017-12-11T12:39:48.573Z,135.00